sensor_id;sensor_type;location;lat;lon;timestamp;temperature;humidity
63013;DHT22;62113;45.624;11.700;2023-07-16T00:02:04;28.80;62.10
63013;DHT22;62113;45.624;11.700;2023-07-16T00:04:30;28.80;62.40
63013;DHT22;62113;45.624;11.700;2023-07-16T00:06:56;28.70;62.40
63013;DHT22;62113;45.624;11.700;2023-07-16T00:09:21;28.70;62.50
63013;DHT22;62113;45.624;11.700;2023-07-16T00:11:47;28.70;62.60
63013;DHT22;62113;45.624;11.700;2023-07-16T00:14:12;28.70;62.80
63013;DHT22;62113;45.624;11.700;2023-07-16T00:16:38;28.70;62.80
63013;DHT22;62113;45.624;11.700;2023-07-16T00:19:04;28.70;62.90
63013;DHT22;62113;45.624;11.700;2023-07-16T00:21:30;28.70;63.20
63013;DHT22;62113;45.624;11.700;2023-07-16T00:23:55;28.70;63.20
63013;DHT22;62113;45.624;11.700;2023-07-16T00:26:21;28.70;63.10
63013;DHT22;62113;45.624;11.700;2023-07-16T00:28:47;28.70;63.30
63013;DHT22;62113;45.624;11.700;2023-07-16T00:31:13;28.70;63.40
63013;DHT22;62113;45.624;11.700;2023-07-16T00:33:38;28.70;63.40
63013;DHT22;62113;45.624;11.700;2023-07-16T00:36:04;28.60;63.60
63013;DHT22;62113;45.624;11.700;2023-07-16T00:38:30;28.60;63.60
63013;DHT22;62113;45.624;11.700;2023-07-16T00:40:56;28.60;63.70
63013;DHT22;62113;45.624;11.700;2023-07-16T00:43:21;28.60;63.80
63013;DHT22;62113;45.624;11.700;2023-07-16T00:45:47;28.50;63.70
63013;DHT22;62113;45.624;11.700;2023-07-16T00:48:13;28.50;63.80
63013;DHT22;62113;45.624;11.700;2023-07-16T00:50:40;28.50;63.80
63013;DHT22;62113;45.624;11.700;2023-07-16T00:53:07;28.50;63.90
63013;DHT22;62113;45.624;11.700;2023-07-16T00:55:34;28.50;63.90
63013;DHT22;62113;45.624;11.700;2023-07-16T00:58:03;28.50;64.00
63013;DHT22;62113;45.624;11.700;2023-07-16T01:00:31;28.50;64.10
63013;DHT22;62113;45.624;11.700;2023-07-16T01:02:57;28.40;64.10
63013;DHT22;62113;45.624;11.700;2023-07-16T01:05:24;28.50;64.20
63013;DHT22;62113;45.624;11.700;2023-07-16T01:07:58;28.40;64.20
63013;DHT22;62113;45.624;11.700;2023-07-16T01:10:25;28.40;64.20
63013;DHT22;62113;45.624;11.700;2023-07-16T01:12:54;28.40;64.30
63013;DHT22;62113;45.624;11.700;2023-07-16T01:15:21;28.40;64.30
63013;DHT22;62113;45.624;11.700;2023-07-16T01:17:47;28.40;64.30
63013;DHT22;62113;45.624;11.700;2023-07-16T01:20:12;28.30;64.40
63013;DHT22;62113;45.624;11.700;2023-07-16T01:22:52;28.30;64.40
63013;DHT22;62113;45.624;11.700;2023-07-16T01:25:44;28.30;64.40
63013;DHT22;62113;45.624;11.700;2023-07-16T01:30:40;28.30;64.60
63013;DHT22;62113;45.624;11.700;2023-07-16T01:33:10;28.20;64.60
63013;DHT22;62113;45.624;11.700;2023-07-16T01:35:37;28.20;64.80
63013;DHT22;62113;45.624;11.700;2023-07-16T01:38:03;28.20;64.90
63013;DHT22;62113;45.624;11.700;2023-07-16T01:40:30;28.20;65.00
63013;DHT22;62113;45.624;11.700;2023-07-16T01:42:55;28.20;65.10
63013;DHT22;62113;45.624;11.700;2023-07-16T01:45:21;28.10;65.20
63013;DHT22;62113;45.624;11.700;2023-07-16T01:48:05;28.10;65.20
63013;DHT22;62113;45.624;11.700;2023-07-16T01:50:34;28.10;65.20
63013;DHT22;62113;45.624;11.700;2023-07-16T01:53:00;28.10;65.40
63013;DHT22;62113;45.624;11.700;2023-07-16T01:55:25;28.00;65.50
63013;DHT22;62113;45.624;11.700;2023-07-16T01:57:51;28.00;65.50
63013;DHT22;62113;45.624;11.700;2023-07-16T02:00:17;28.00;65.50
63013;DHT22;62113;45.624;11.700;2023-07-16T02:02:43;28.00;65.70
63013;DHT22;62113;45.624;11.700;2023-07-16T02:05:08;28.00;65.70
63013;DHT22;62113;45.624;11.700;2023-07-16T02:07:34;28.00;65.60
63013;DHT22;62113;45.624;11.700;2023-07-16T02:09:59;27.90;65.70
63013;DHT22;62113;45.624;11.700;2023-07-16T02:12:25;28.00;65.80
63013;DHT22;62113;45.624;11.700;2023-07-16T02:14:51;28.00;65.80
63013;DHT22;62113;45.624;11.700;2023-07-16T02:17:16;27.90;65.80
63013;DHT22;62113;45.624;11.700;2023-07-16T02:19:42;27.90;65.90
63013;DHT22;62113;45.624;11.700;2023-07-16T02:22:08;27.90;66.00
63013;DHT22;62113;45.624;11.700;2023-07-16T02:24:33;27.90;65.90
63013;DHT22;62113;45.624;11.700;2023-07-16T02:26:59;27.80;66.00
63013;DHT22;62113;45.624;11.700;2023-07-16T02:29:25;27.80;66.10
63013;DHT22;62113;45.624;11.700;2023-07-16T02:31:50;27.80;66.20
63013;DHT22;62113;45.624;11.700;2023-07-16T02:34:16;27.80;66.20
63013;DHT22;62113;45.624;11.700;2023-07-16T02:36:42;27.80;66.30
63013;DHT22;62113;45.624;11.700;2023-07-16T02:39:07;27.80;66.30
63013;DHT22;62113;45.624;11.700;2023-07-16T02:41:33;27.80;66.30
63013;DHT22;62113;45.624;11.700;2023-07-16T02:44:04;27.80;66.30
63013;DHT22;62113;45.624;11.700;2023-07-16T02:46:29;27.80;66.40
63013;DHT22;62113;45.624;11.700;2023-07-16T02:48:55;27.80;66.40
63013;DHT22;62113;45.624;11.700;2023-07-16T02:51:21;27.80;66.30
63013;DHT22;62113;45.624;11.700;2023-07-16T02:53:46;27.70;66.30
63013;DHT22;62113;45.624;11.700;2023-07-16T02:56:12;27.70;66.30
63013;DHT22;62113;45.624;11.700;2023-07-16T02:58:37;27.70;66.30
63013;DHT22;62113;45.624;11.700;2023-07-16T03:01:03;27.70;66.30
63013;DHT22;62113;45.624;11.700;2023-07-16T03:03:29;27.70;66.30
63013;DHT22;62113;45.624;11.700;2023-07-16T03:05:54;27.70;66.40
63013;DHT22;62113;45.624;11.700;2023-07-16T03:08:20;27.70;66.40
63013;DHT22;62113;45.624;11.700;2023-07-16T03:10:46;27.70;66.40
63013;DHT22;62113;45.624;11.700;2023-07-16T03:13:11;27.60;66.50
63013;DHT22;62113;45.624;11.700;2023-07-16T03:15:37;27.50;66.50
63013;DHT22;62113;45.624;11.700;2023-07-16T03:18:03;27.50;66.60
63013;DHT22;62113;45.624;11.700;2023-07-16T03:20:28;27.50;66.60
63013;DHT22;62113;45.624;11.700;2023-07-16T03:22:54;27.50;66.60
63013;DHT22;62113;45.624;11.700;2023-07-16T03:25:19;27.50;66.70
63013;DHT22;62113;45.624;11.700;2023-07-16T03:27:45;27.40;66.70
63013;DHT22;62113;45.624;11.700;2023-07-16T03:30:11;27.40;66.80
63013;DHT22;62113;45.624;11.700;2023-07-16T03:32:36;27.30;67.00
63013;DHT22;62113;45.624;11.700;2023-07-16T03:35:02;27.30;67.10
63013;DHT22;62113;45.624;11.700;2023-07-16T03:37:28;27.30;67.20
63013;DHT22;62113;45.624;11.700;2023-07-16T03:39:53;27.30;67.40
63013;DHT22;62113;45.624;11.700;2023-07-16T03:42:19;27.30;67.30
63013;DHT22;62113;45.624;11.700;2023-07-16T03:44:44;27.30;67.30
63013;DHT22;62113;45.624;11.700;2023-07-16T03:47:10;27.30;67.40
63013;DHT22;62113;45.624;11.700;2023-07-16T03:49:36;27.30;67.50
63013;DHT22;62113;45.624;11.700;2023-07-16T03:52:02;27.20;67.50
63013;DHT22;62113;45.624;11.700;2023-07-16T03:54:27;27.20;67.50
63013;DHT22;62113;45.624;11.700;2023-07-16T03:56:54;27.20;67.60
63013;DHT22;62113;45.624;11.700;2023-07-16T03:59:20;27.20;67.60
63013;DHT22;62113;45.624;11.700;2023-07-16T04:01:46;27.30;67.60
63013;DHT22;62113;45.624;11.700;2023-07-16T04:04:11;27.30;67.60
63013;DHT22;62113;45.624;11.700;2023-07-16T04:06:37;27.20;67.60
63013;DHT22;62113;45.624;11.700;2023-07-16T04:09:02;27.20;67.70
63013;DHT22;62113;45.624;11.700;2023-07-16T04:11:28;27.20;67.60
63013;DHT22;62113;45.624;11.700;2023-07-16T04:13:53;27.20;67.60
63013;DHT22;62113;45.624;11.700;2023-07-16T04:16:19;27.20;67.70
63013;DHT22;62113;45.624;11.700;2023-07-16T04:18:45;27.30;67.70
63013;DHT22;62113;45.624;11.700;2023-07-16T04:21:10;27.30;67.60
63013;DHT22;62113;45.624;11.700;2023-07-16T04:23:36;27.30;67.60
63013;DHT22;62113;45.624;11.700;2023-07-16T04:26:01;27.30;67.60
63013;DHT22;62113;45.624;11.700;2023-07-16T04:28:27;27.30;67.50
63013;DHT22;62113;45.624;11.700;2023-07-16T04:30:52;27.40;67.50
63013;DHT22;62113;45.624;11.700;2023-07-16T04:33:18;27.50;67.60
63013;DHT22;62113;45.624;11.700;2023-07-16T04:35:44;27.50;67.50
63013;DHT22;62113;45.624;11.700;2023-07-16T04:38:10;27.50;67.40
63013;DHT22;62113;45.624;11.700;2023-07-16T04:40:35;27.60;67.30
63013;DHT22;62113;45.624;11.700;2023-07-16T04:43:01;27.70;67.30
63013;DHT22;62113;45.624;11.700;2023-07-16T04:45:27;27.70;67.10
63013;DHT22;62113;45.624;11.700;2023-07-16T04:47:52;27.80;67.00
63013;DHT22;62113;45.624;11.700;2023-07-16T04:50:18;28.00;66.70
63013;DHT22;62113;45.624;11.700;2023-07-16T04:52:43;28.30;66.00
63013;DHT22;62113;45.624;11.700;2023-07-16T04:55:09;28.90;65.00
63013;DHT22;62113;45.624;11.700;2023-07-16T04:57:35;29.50;64.00
63013;DHT22;62113;45.624;11.700;2023-07-16T05:00:01;30.10;61.80
63013;DHT22;62113;45.624;11.700;2023-07-16T05:02:26;30.70;58.30
63013;DHT22;62113;45.624;11.700;2023-07-16T05:04:52;31.20;59.20
63013;DHT22;62113;45.624;11.700;2023-07-16T05:07:18;31.60;58.00
63013;DHT22;62113;45.624;11.700;2023-07-16T05:09:43;31.70;56.90
63013;DHT22;62113;45.624;11.700;2023-07-16T05:12:09;31.70;55.90
63013;DHT22;62113;45.624;11.700;2023-07-16T05:14:44;31.30;56.00
63013;DHT22;62113;45.624;11.700;2023-07-16T05:17:10;31.10;56.50
63013;DHT22;62113;45.624;11.700;2023-07-16T05:19:36;30.80;56.90
63013;DHT22;62113;45.624;11.700;2023-07-16T05:22:02;30.60;57.00
63013;DHT22;62113;45.624;11.700;2023-07-16T05:24:27;30.40;57.10
63013;DHT22;62113;45.624;11.700;2023-07-16T05:26:53;30.20;57.50
63013;DHT22;62113;45.624;11.700;2023-07-16T05:29:19;30.10;57.60
63013;DHT22;62113;45.624;11.700;2023-07-16T05:31:45;30.00;58.10
63013;DHT22;62113;45.624;11.700;2023-07-16T05:34:12;29.90;58.30
63013;DHT22;62113;45.624;11.700;2023-07-16T05:36:37;29.70;58.40
63013;DHT22;62113;45.624;11.700;2023-07-16T05:39:03;29.70;58.20
63013;DHT22;62113;45.624;11.700;2023-07-16T05:41:29;29.60;58.30
63013;DHT22;62113;45.624;11.700;2023-07-16T05:43:54;29.50;57.70
63013;DHT22;62113;45.624;11.700;2023-07-16T05:46:20;29.40;58.40
63013;DHT22;62113;45.624;11.700;2023-07-16T05:48:45;29.40;58.40
63013;DHT22;62113;45.624;11.700;2023-07-16T05:51:11;29.40;58.40
63013;DHT22;62113;45.624;11.700;2023-07-16T05:53:36;29.40;60.40
63013;DHT22;62113;45.624;11.700;2023-07-16T05:56:02;29.30;60.50
63013;DHT22;62113;45.624;11.700;2023-07-16T05:58:28;29.20;62.10
63013;DHT22;62113;45.624;11.700;2023-07-16T06:00:54;29.10;62.50
63013;DHT22;62113;45.624;11.700;2023-07-16T06:03:20;29.10;63.10
63013;DHT22;62113;45.624;11.700;2023-07-16T06:05:45;29.10;63.30
63013;DHT22;62113;45.624;11.700;2023-07-16T06:08:11;29.20;63.10
63013;DHT22;62113;45.624;11.700;2023-07-16T06:10:37;29.40;62.60
63013;DHT22;62113;45.624;11.700;2023-07-16T06:13:04;29.70;61.80
63013;DHT22;62113;45.624;11.700;2023-07-16T06:15:30;30.20;60.00
63013;DHT22;62113;45.624;11.700;2023-07-16T06:17:55;31.10;58.00
63013;DHT22;62113;45.624;11.700;2023-07-16T06:20:21;32.10;55.40
63013;DHT22;62113;45.624;11.700;2023-07-16T06:22:46;33.00;53.00
63013;DHT22;62113;45.624;11.700;2023-07-16T06:25:12;34.00;50.80
63013;DHT22;62113;45.624;11.700;2023-07-16T06:27:38;34.70;48.40
63013;DHT22;62113;45.624;11.700;2023-07-16T06:30:04;35.40;48.30
63013;DHT22;62113;45.624;11.700;2023-07-16T06:32:31;36.30;46.70
63013;DHT22;62113;45.624;11.700;2023-07-16T06:34:56;37.30;44.40
63013;DHT22;62113;45.624;11.700;2023-07-16T06:37:22;38.40;43.00
63013;DHT22;62113;45.624;11.700;2023-07-16T06:39:49;39.30;41.20
63013;DHT22;62113;45.624;11.700;2023-07-16T06:42:15;40.10;39.70
63013;DHT22;62113;45.624;11.700;2023-07-16T06:44:40;40.90;38.60
63013;DHT22;62113;45.624;11.700;2023-07-16T06:47:06;41.60;37.50
63013;DHT22;62113;45.624;11.700;2023-07-16T06:49:31;42.30;35.90
63013;DHT22;62113;45.624;11.700;2023-07-16T06:51:57;42.90;35.20
63013;DHT22;62113;45.624;11.700;2023-07-16T06:54:23;43.40;33.80
63013;DHT22;62113;45.624;11.700;2023-07-16T06:56:48;43.70;33.30
63013;DHT22;62113;45.624;11.700;2023-07-16T06:59:14;44.20;32.80
63013;DHT22;62113;45.624;11.700;2023-07-16T07:01:39;44.50;32.70
63013;DHT22;62113;45.624;11.700;2023-07-16T07:04:05;45.00;32.30
63013;DHT22;62113;45.624;11.700;2023-07-16T07:06:31;45.40;31.50
63013;DHT22;62113;45.624;11.700;2023-07-16T07:08:56;45.90;31.30
63013;DHT22;62113;45.624;11.700;2023-07-16T07:11:22;46.60;30.90
63013;DHT22;62113;45.624;11.700;2023-07-16T07:13:48;47.10;30.30
63013;DHT22;62113;45.624;11.700;2023-07-16T07:16:13;47.50;29.30
63013;DHT22;62113;45.624;11.700;2023-07-16T07:18:39;47.70;28.40
63013;DHT22;62113;45.624;11.700;2023-07-16T07:21:04;47.90;28.30
63013;DHT22;62113;45.624;11.700;2023-07-16T07:23:30;48.10;28.20
63013;DHT22;62113;45.624;11.700;2023-07-16T07:25:55;47.90;27.60
63013;DHT22;62113;45.624;11.700;2023-07-16T07:28:21;47.60;27.80
63013;DHT22;62113;45.624;11.700;2023-07-16T07:30:47;47.70;28.10
63013;DHT22;62113;45.624;11.700;2023-07-16T07:33:12;47.60;27.90
63013;DHT22;62113;45.624;11.700;2023-07-16T07:35:39;48.00;28.00
63013;DHT22;62113;45.624;11.700;2023-07-16T07:38:04;48.50;27.80
63013;DHT22;62113;45.624;11.700;2023-07-16T07:40:30;48.90;27.10
63013;DHT22;62113;45.624;11.700;2023-07-16T07:42:55;48.80;27.00
63013;DHT22;62113;45.624;11.700;2023-07-16T07:45:21;48.70;26.20
63013;DHT22;62113;45.624;11.700;2023-07-16T07:47:46;48.60;27.10
63013;DHT22;62113;45.624;11.700;2023-07-16T07:50:12;48.80;26.60
63013;DHT22;62113;45.624;11.700;2023-07-16T07:52:38;49.00;26.20
63013;DHT22;62113;45.624;11.700;2023-07-16T07:55:04;49.30;26.50
63013;DHT22;62113;45.624;11.700;2023-07-16T07:57:30;49.70;26.30
63013;DHT22;62113;45.624;11.700;2023-07-16T07:59:55;50.20;25.90
63013;DHT22;62113;45.624;11.700;2023-07-16T08:02:23;50.20;25.50
63013;DHT22;62113;45.624;11.700;2023-07-16T08:04:53;50.40;25.60
63013;DHT22;62113;45.624;11.700;2023-07-16T08:07:19;50.70;25.30
63013;DHT22;62113;45.624;11.700;2023-07-16T08:09:46;50.80;25.10
63013;DHT22;62113;45.624;11.700;2023-07-16T08:12:12;50.50;24.70
63013;DHT22;62113;45.624;11.700;2023-07-16T08:14:38;50.40;25.00
63013;DHT22;62113;45.624;11.700;2023-07-16T08:17:04;50.50;25.00
63013;DHT22;62113;45.624;11.700;2023-07-16T08:19:30;50.70;25.20
63013;DHT22;62113;45.624;11.700;2023-07-16T08:21:55;50.70;24.30
63013;DHT22;62113;45.624;11.700;2023-07-16T08:24:21;50.20;24.50
63013;DHT22;62113;45.624;11.700;2023-07-16T08:26:46;49.70;25.10
63013;DHT22;62113;45.624;11.700;2023-07-16T08:29:12;49.20;25.80
63013;DHT22;62113;45.624;11.700;2023-07-16T08:31:38;48.10;26.70
63013;DHT22;62113;45.624;11.700;2023-07-16T08:34:03;46.70;27.90
63013;DHT22;62113;45.624;11.700;2023-07-16T08:36:29;45.20;29.50
63013;DHT22;62113;45.624;11.700;2023-07-16T08:38:54;43.70;31.00
63013;DHT22;62113;45.624;11.700;2023-07-16T08:41:20;42.60;32.40
63013;DHT22;62113;45.624;11.700;2023-07-16T08:43:46;41.50;34.30
63013;DHT22;62113;45.624;11.700;2023-07-16T08:46:15;40.00;36.90
63013;DHT22;62113;45.624;11.700;2023-07-16T08:48:41;38.70;39.00
63013;DHT22;62113;45.624;11.700;2023-07-16T08:51:08;37.40;42.10
63013;DHT22;62113;45.624;11.700;2023-07-16T08:53:34;36.70;43.90
63013;DHT22;62113;45.624;11.700;2023-07-16T08:56:00;36.30;44.60
63013;DHT22;62113;45.624;11.700;2023-07-16T08:58:28;36.10;44.50
63013;DHT22;62113;45.624;11.700;2023-07-16T09:00:55;35.70;45.20
63013;DHT22;62113;45.624;11.700;2023-07-16T09:03:21;35.40;45.90
63013;DHT22;62113;45.624;11.700;2023-07-16T09:05:47;35.20;46.70
63013;DHT22;62113;45.624;11.700;2023-07-16T09:08:13;35.20;46.80
63013;DHT22;62113;45.624;11.700;2023-07-16T09:10:42;35.20;46.50
63013;DHT22;62113;45.624;11.700;2023-07-16T09:13:08;35.10;46.90
63013;DHT22;62113;45.624;11.700;2023-07-16T09:15:34;35.20;47.20
63013;DHT22;62113;45.624;11.700;2023-07-16T09:18:00;35.20;47.10
63013;DHT22;62113;45.624;11.700;2023-07-16T09:20:26;35.20;47.20
63013;DHT22;62113;45.624;11.700;2023-07-16T09:22:58;35.30;47.60
63013;DHT22;62113;45.624;11.700;2023-07-16T09:25:30;35.30;47.80
63013;DHT22;62113;45.624;11.700;2023-07-16T09:27:58;35.40;48.70
63013;DHT22;62113;45.624;11.700;2023-07-16T09:30:33;35.60;48.50
63013;DHT22;62113;45.624;11.700;2023-07-16T09:33:14;35.60;47.80
63013;DHT22;62113;45.624;11.700;2023-07-16T09:35:41;35.70;47.70
63013;DHT22;62113;45.624;11.700;2023-07-16T09:38:08;35.70;47.20
63013;DHT22;62113;45.624;11.700;2023-07-16T09:40:38;35.80;47.20
63013;DHT22;62113;45.624;11.700;2023-07-16T09:43:04;35.80;47.00
63013;DHT22;62113;45.624;11.700;2023-07-16T09:45:31;35.90;47.30
63013;DHT22;62113;45.624;11.700;2023-07-16T09:47:56;35.90;46.90
63013;DHT22;62113;45.624;11.700;2023-07-16T09:50:23;36.00;46.90
63013;DHT22;62113;45.624;11.700;2023-07-16T09:52:51;35.90;47.40
63013;DHT22;62113;45.624;11.700;2023-07-16T09:55:18;35.90;47.10
63013;DHT22;62113;45.624;11.700;2023-07-16T09:57:47;35.80;47.10
63013;DHT22;62113;45.624;11.700;2023-07-16T10:00:13;35.70;47.00
63013;DHT22;62113;45.624;11.700;2023-07-16T10:02:41;35.40;47.20
63013;DHT22;62113;45.624;11.700;2023-07-16T10:05:17;34.90;48.30
63013;DHT22;62113;45.624;11.700;2023-07-16T10:07:50;34.60;49.70
63013;DHT22;62113;45.624;11.700;2023-07-16T10:10:16;34.40;51.30
63013;DHT22;62113;45.624;11.700;2023-07-16T10:12:43;34.30;50.70
63013;DHT22;62113;45.624;11.700;2023-07-16T10:15:28;34.20;51.10
63013;DHT22;62113;45.624;11.700;2023-07-16T10:17:55;34.20;51.40
63013;DHT22;62113;45.624;11.700;2023-07-16T10:20:32;34.20;50.70
63013;DHT22;62113;45.624;11.700;2023-07-16T10:22:58;34.20;51.30
63013;DHT22;62113;45.624;11.700;2023-07-16T10:25:27;34.20;52.70
63013;DHT22;62113;45.624;11.700;2023-07-16T10:27:54;34.30;51.10
63013;DHT22;62113;45.624;11.700;2023-07-16T10:30:20;34.30;50.20
63013;DHT22;62113;45.624;11.700;2023-07-16T10:32:46;34.30;50.50
63013;DHT22;62113;45.624;11.700;2023-07-16T10:35:12;34.40;50.70
63013;DHT22;62113;45.624;11.700;2023-07-16T10:37:38;34.30;51.30
63013;DHT22;62113;45.624;11.700;2023-07-16T10:40:05;34.40;51.30
63013;DHT22;62113;45.624;11.700;2023-07-16T10:42:34;34.30;50.70
63013;DHT22;62113;45.624;11.700;2023-07-16T10:45:02;34.20;51.40
63013;DHT22;62113;45.624;11.700;2023-07-16T10:47:36;34.20;51.30
63013;DHT22;62113;45.624;11.700;2023-07-16T10:50:09;34.20;50.80
63013;DHT22;62113;45.624;11.700;2023-07-16T10:52:36;34.40;50.80
63013;DHT22;62113;45.624;11.700;2023-07-16T10:55:03;34.40;50.30
63013;DHT22;62113;45.624;11.700;2023-07-16T10:57:28;34.20;50.10
63013;DHT22;62113;45.624;11.700;2023-07-16T10:59:56;34.20;49.90
63013;DHT22;62113;45.624;11.700;2023-07-16T11:02:23;34.20;50.40
63013;DHT22;62113;45.624;11.700;2023-07-16T11:04:50;34.20;51.00
63013;DHT22;62113;45.624;11.700;2023-07-16T11:07:18;34.20;50.30
63013;DHT22;62113;45.624;11.700;2023-07-16T11:12:19;34.20;49.40
63013;DHT22;62113;45.624;11.700;2023-07-16T11:14:52;34.30;49.10
63013;DHT22;62113;45.624;11.700;2023-07-16T11:17:19;34.40;50.40
63013;DHT22;62113;45.624;11.700;2023-07-16T11:19:47;34.50;49.30
63013;DHT22;62113;45.624;11.700;2023-07-16T11:22:13;34.70;50.10
63013;DHT22;62113;45.624;11.700;2023-07-16T11:27:21;34.70;49.40
63013;DHT22;62113;45.624;11.700;2023-07-16T11:29:52;34.80;49.60
63013;DHT22;62113;45.624;11.700;2023-07-16T11:32:42;34.80;50.50
63013;DHT22;62113;45.624;11.700;2023-07-16T11:35:16;34.80;50.00
63013;DHT22;62113;45.624;11.700;2023-07-16T11:37:42;34.90;49.60
63013;DHT22;62113;45.624;11.700;2023-07-16T11:40:09;35.00;49.50
63013;DHT22;62113;45.624;11.700;2023-07-16T11:42:39;35.00;48.80
63013;DHT22;62113;45.624;11.700;2023-07-16T11:45:18;35.10;49.10
63013;DHT22;62113;45.624;11.700;2023-07-16T11:47:44;35.10;48.20
63013;DHT22;62113;45.624;11.700;2023-07-16T11:50:09;35.20;48.70
63013;DHT22;62113;45.624;11.700;2023-07-16T11:52:35;35.10;48.70
63013;DHT22;62113;45.624;11.700;2023-07-16T11:55:01;35.20;49.10
63013;DHT22;62113;45.624;11.700;2023-07-16T11:57:27;35.20;48.60
63013;DHT22;62113;45.624;11.700;2023-07-16T11:59:53;35.20;47.90
63013;DHT22;62113;45.624;11.700;2023-07-16T12:02:20;35.10;48.30
63013;DHT22;62113;45.624;11.700;2023-07-16T12:04:47;35.10;48.10
63013;DHT22;62113;45.624;11.700;2023-07-16T12:07:12;35.20;48.40
63013;DHT22;62113;45.624;11.700;2023-07-16T12:09:38;35.20;47.70
63013;DHT22;62113;45.624;11.700;2023-07-16T12:12:04;35.10;48.60
63013;DHT22;62113;45.624;11.700;2023-07-16T12:14:30;35.10;49.00
63013;DHT22;62113;45.624;11.700;2023-07-16T12:16:56;35.20;49.60
63013;DHT22;62113;45.624;11.700;2023-07-16T12:19:22;35.20;48.70
63013;DHT22;62113;45.624;11.700;2023-07-16T12:21:48;35.20;47.70
63013;DHT22;62113;45.624;11.700;2023-07-16T12:24:13;35.30;47.50
63013;DHT22;62113;45.624;11.700;2023-07-16T12:26:39;35.20;47.40
63013;DHT22;62113;45.624;11.700;2023-07-16T12:29:05;35.20;47.40
63013;DHT22;62113;45.624;11.700;2023-07-16T12:31:31;35.20;46.70
63013;DHT22;62113;45.624;11.700;2023-07-16T12:33:57;35.10;46.70
63013;DHT22;62113;45.624;11.700;2023-07-16T12:36:23;35.00;46.60
63013;DHT22;62113;45.624;11.700;2023-07-16T12:38:49;34.90;46.90
63013;DHT22;62113;45.624;11.700;2023-07-16T12:41:15;35.00;47.00
63013;DHT22;62113;45.624;11.700;2023-07-16T12:43:40;35.00;47.20
63013;DHT22;62113;45.624;11.700;2023-07-16T12:46:06;35.10;47.00
63013;DHT22;62113;45.624;11.700;2023-07-16T12:48:32;35.00;47.20
63013;DHT22;62113;45.624;11.700;2023-07-16T12:50:57;35.00;47.50
63013;DHT22;62113;45.624;11.700;2023-07-16T12:53:26;35.10;47.60
63013;DHT22;62113;45.624;11.700;2023-07-16T12:55:52;35.20;46.70
63013;DHT22;62113;45.624;11.700;2023-07-16T12:58:18;35.20;46.10
63013;DHT22;62113;45.624;11.700;2023-07-16T13:00:44;35.10;46.00
63013;DHT22;62113;45.624;11.700;2023-07-16T13:03:10;35.10;45.40
63013;DHT22;62113;45.624;11.700;2023-07-16T13:05:37;35.10;45.90
63013;DHT22;62113;45.624;11.700;2023-07-16T13:08:04;35.10;45.10
63013;DHT22;62113;45.624;11.700;2023-07-16T13:10:29;35.10;45.10
63013;DHT22;62113;45.624;11.700;2023-07-16T13:12:55;35.10;44.90
63013;DHT22;62113;45.624;11.700;2023-07-16T13:15:21;35.20;45.40
63013;DHT22;62113;45.624;11.700;2023-07-16T13:17:46;35.20;45.70
63013;DHT22;62113;45.624;11.700;2023-07-16T13:20:13;35.20;46.20
63013;DHT22;62113;45.624;11.700;2023-07-16T13:22:39;35.20;45.80
63013;DHT22;62113;45.624;11.700;2023-07-16T13:25:05;35.20;45.00
63013;DHT22;62113;45.624;11.700;2023-07-16T13:27:30;35.30;43.90
63013;DHT22;62113;45.624;11.700;2023-07-16T13:29:56;35.30;45.10
63013;DHT22;62113;45.624;11.700;2023-07-16T13:32:22;35.20;45.00
63013;DHT22;62113;45.624;11.700;2023-07-16T13:34:47;35.30;45.00
63013;DHT22;62113;45.624;11.700;2023-07-16T13:37:13;35.30;43.30
63013;DHT22;62113;45.624;11.700;2023-07-16T13:39:39;35.30;43.80
63013;DHT22;62113;45.624;11.700;2023-07-16T13:42:05;35.40;43.70
63013;DHT22;62113;45.624;11.700;2023-07-16T13:44:35;35.40;42.80
63013;DHT22;62113;45.624;11.700;2023-07-16T13:47:01;35.40;41.90
63013;DHT22;62113;45.624;11.700;2023-07-16T13:49:26;35.40;41.60
63013;DHT22;62113;45.624;11.700;2023-07-16T13:51:52;35.40;42.50
63013;DHT22;62113;45.624;11.700;2023-07-16T13:54:18;35.40;41.20
63013;DHT22;62113;45.624;11.700;2023-07-16T13:56:44;35.50;40.90
63013;DHT22;62113;45.624;11.700;2023-07-16T13:59:11;35.50;40.80
63013;DHT22;62113;45.624;11.700;2023-07-16T14:01:39;35.50;40.00
63013;DHT22;62113;45.624;11.700;2023-07-16T14:04:05;35.50;42.40
63013;DHT22;62113;45.624;11.700;2023-07-16T14:06:31;35.50;43.40
63013;DHT22;62113;45.624;11.700;2023-07-16T14:08:58;35.50;43.80
63013;DHT22;62113;45.624;11.700;2023-07-16T14:11:23;35.50;45.70
63013;DHT22;62113;45.624;11.700;2023-07-16T14:13:49;35.50;47.10
63013;DHT22;62113;45.624;11.700;2023-07-16T14:16:22;35.40;48.10
63013;DHT22;62113;45.624;11.700;2023-07-16T14:18:52;35.20;49.60
63013;DHT22;62113;45.624;11.700;2023-07-16T14:21:18;35.10;49.10
63013;DHT22;62113;45.624;11.700;2023-07-16T14:23:44;35.00;48.90
63013;DHT22;62113;45.624;11.700;2023-07-16T14:26:09;34.80;51.00
63013;DHT22;62113;45.624;11.700;2023-07-16T14:28:35;34.80;50.50
63013;DHT22;62113;45.624;11.700;2023-07-16T14:31:01;34.70;50.60
63013;DHT22;62113;45.624;11.700;2023-07-16T14:33:26;34.60;51.00
63013;DHT22;62113;45.624;11.700;2023-07-16T14:35:53;34.50;50.90
63013;DHT22;62113;45.624;11.700;2023-07-16T14:38:18;34.50;50.90
63013;DHT22;62113;45.624;11.700;2023-07-16T14:40:44;34.50;51.50
63013;DHT22;62113;45.624;11.700;2023-07-16T14:43:10;34.60;52.10
63013;DHT22;62113;45.624;11.700;2023-07-16T14:45:35;34.60;51.50
63013;DHT22;62113;45.624;11.700;2023-07-16T14:48:01;34.60;50.90
63013;DHT22;62113;45.624;11.700;2023-07-16T14:50:27;34.60;51.10
63013;DHT22;62113;45.624;11.700;2023-07-16T14:52:53;34.70;51.40
63013;DHT22;62113;45.624;11.700;2023-07-16T14:55:19;34.70;50.50
63013;DHT22;62113;45.624;11.700;2023-07-16T14:57:45;34.70;50.60
63013;DHT22;62113;45.624;11.700;2023-07-16T15:00:11;34.70;51.10
63013;DHT22;62113;45.624;11.700;2023-07-16T15:02:37;34.50;51.80
63013;DHT22;62113;45.624;11.700;2023-07-16T15:05:04;34.40;52.10
63013;DHT22;62113;45.624;11.700;2023-07-16T15:07:32;34.30;52.30
63013;DHT22;62113;45.624;11.700;2023-07-16T15:10:00;34.30;52.90
63013;DHT22;62113;45.624;11.700;2023-07-16T15:12:25;34.30;53.00
63013;DHT22;62113;45.624;11.700;2023-07-16T15:14:51;34.20;51.70
63013;DHT22;62113;45.624;11.700;2023-07-16T15:17:17;34.20;53.30
63013;DHT22;62113;45.624;11.700;2023-07-16T15:19:43;34.10;51.70